Time;durP1;ratioP1;P1;durP2;ratioP2;P2;SDS_P1;SDS_P2;PMS_P1;PMS_P2;Temp;Humidity;BMP_temperature;BMP_pressure;BME280_temperature;BME280_humidity;BME280_pressure;Samples;Min_cycle;Max_cycle;Signal;HPM_P1;HPM_P2
2023/01/27 00:00:54;;;;;;;9.38;3.35;;;3.10;100.00;;;;;;4946709;28;20055;-77
2023/01/27 00:03:21;;;;;;;7.43;3.80;;;3.10;100.00;;;;;;4949081;28;20057;-77
2023/01/27 00:05:48;;;;;;;11.70;4.20;;;3.20;100.00;;;;;;4951476;28;20043;-76
2023/01/27 00:08:16;;;;;;;6.50;3.35;;;3.20;100.00;;;;;;4947616;28;20051;-77
2023/01/27 00:10:43;;;;;;;7.05;3.65;;;3.20;100.00;;;;;;4946611;28;20142;-77
2023/01/27 00:13:25;;;;;;;7.80;3.80;;;3.10;100.00;;;;;;4947087;28;20090;-77
2023/01/27 00:15:53;;;;;;;7.85;3.95;;;3.10;100.00;;;;;;4947431;28;20065;-76
2023/01/27 00:18:20;;;;;;;8.68;2.78;;;3.20;100.00;;;;;;4949779;28;20403;-76
2023/01/27 00:26:18;;;;;;;;;;;3.10;100.00;;;;;;4948652;28;20055;-76
2023/01/27 00:28:46;;;;;;;6.55;2.95;;;3.20;100.00;;;;;;4949396;28;19933;-76
2023/01/27 00:34:07;;;;;;;6.18;3.10;;;3.10;100.00;;;;;;4949342;28;20047;-76
2023/01/27 00:36:36;;;;;;;8.25;2.95;;;3.10;100.00;;;;;;4943450;28;20055;-78
2023/01/27 00:39:05;;;;;;;6.07;2.70;;;3.10;100.00;;;;;;4945883;28;20043;-77
2023/01/27 00:41:33;;;;;;;6.85;3.00;;;3.10;100.00;;;;;;4949509;28;20055;-76
2023/01/27 00:44:00;;;;;;;5.20;2.85;;;3.10;100.00;;;;;;4961970;28;20059;-76
2023/01/27 00:46:28;;;;;;;10.25;2.97;;;3.10;100.00;;;;;;4948241;28;20136;-76
2023/01/27 00:48:55;;;;;;;6.28;3.30;;;3.00;100.00;;;;;;4949148;28;20062;-76
2023/01/27 00:51:22;;;;;;;8.15;3.53;;;3.00;100.00;;;;;;4948989;28;20051;-75
2023/01/27 00:53:49;;;;;;;7.43;2.78;;;3.00;100.00;;;;;;4946172;28;20129;-75
2023/01/27 00:56:16;;;;;;;7.68;2.60;;;3.00;100.00;;;;;;4949277;28;20055;-77
2023/01/27 00:58:43;;;;;;;6.90;2.25;;;3.00;100.00;;;;;;4946574;28;20135;-76
2023/01/27 01:01:13;;;;;;;6.80;2.58;;;3.00;100.00;;;;;;4944671;28;20521;-76
2023/01/27 01:03:40;;;;;;;9.85;2.83;;;3.00;100.00;;;;;;4940380;28;20393;-76
2023/01/27 01:06:11;;;;;;;4.93;2.08;;;3.00;100.00;;;;;;4942688;28;20055;-76
2023/01/27 01:08:38;;;;;;;8.18;2.03;;;3.00;100.00;;;;;;4949326;28;20043;-77
2023/01/27 01:11:07;;;;;;;9.25;1.52;;;2.90;100.00;;;;;;4946990;28;20051;-76
2023/01/27 01:13:34;;;;;;;7.45;1.92;;;2.90;100.00;;;;;;4948688;28;20066;-77
2023/01/27 01:16:10;;;;;;;6.03;1.63;;;2.90;100.00;;;;;;4944071;28;20051;-77
2023/01/27 01:18:37;;;;;;;10.73;2.17;;;2.90;100.00;;;;;;4943230;28;20054;-77
2023/01/27 01:21:05;;;;;;;9.73;1.75;;;2.90;100.00;;;;;;4947396;28;20192;-77
2023/01/27 01:23:36;;;;;;;7.00;2.03;;;2.90;100.00;;;;;;4937753;28;20503;-77
2023/01/27 01:26:03;;;;;;;6.03;1.63;;;2.90;100.00;;;;;;4949970;28;20070;-76
2023/01/27 01:28:30;;;;;;;12.02;2.00;;;2.90;100.00;;;;;;4954780;28;20051;-77
2023/01/27 01:31:03;;;;;;;8.50;1.85;;;2.90;100.00;;;;;;4951423;28;20061;-77
2023/01/27 01:33:30;;;;;;;4.13;1.65;;;2.90;100.00;;;;;;4960806;28;20059;-76
2023/01/27 01:36:03;;;;;;;9.38;2.85;;;2.90;100.00;;;;;;4946110;28;20054;-76
2023/01/27 01:38:30;;;;;;;8.93;1.92;;;2.90;100.00;;;;;;4941372;28;20141;-77
2023/01/27 01:40:57;;;;;;;10.82;2.03;;;2.90;100.00;;;;;;4946372;28;20054;-77
2023/01/27 01:43:25;;;;;;;10.57;1.77;;;2.90;100.00;;;;;;4960225;28;20765;-77
2023/01/27 01:45:53;;;;;;;8.95;1.67;;;2.80;100.00;;;;;;4943079;28;20058;-77
2023/01/27 01:48:29;;;;;;;8.50;1.80;;;2.80;100.00;;;;;;4945382;28;20078;-77
2023/01/27 01:51:15;;;;;;;6.20;1.65;;;2.80;100.00;;;;;;4948588;28;20046;-77
2023/01/27 01:53:59;;;;;;;5.22;1.77;;;2.80;100.00;;;;;;4945150;28;20060;-77
2023/01/27 01:56:30;;;;;;;12.93;1.90;;;2.80;100.00;;;;;;4945063;28;20055;-77
2023/01/27 01:59:04;;;;;;;9.70;1.65;;;2.80;100.00;;;;;;4942253;28;20053;-77
2023/01/27 02:01:31;;;;;;;4.65;1.70;;;2.80;100.00;;;;;;4958233;28;20055;-77
2023/01/27 02:04:02;;;;;;;9.25;1.90;;;2.80;100.00;;;;;;4943489;28;20809;-77
2023/01/27 02:06:36;;;;;;;16.33;2.30;;;2.80;100.00;;;;;;4949036;28;20055;-77
2023/01/27 02:09:03;;;;;;;6.43;1.73;;;2.80;100.00;;;;;;4947882;28;20065;-77
2023/01/27 02:11:30;;;;;;;17.15;2.30;;;2.80;100.00;;;;;;4946343;28;20047;-77
2023/01/27 02:14:00;;;;;;;5.03;1.60;;;2.80;100.00;;;;;;4960830;28;20634;-78
2023/01/27 02:16:28;;;;;;;9.40;1.67;;;2.70;100.00;;;;;;4945305;28;20535;-77
2023/01/27 02:18:56;;;;;;;4.20;1.45;;;2.80;100.00;;;;;;4948787;28;20578;-77
2023/01/27 02:21:22;;;;;;;5.97;1.63;;;2.70;100.00;;;;;;4963849;28;20051;-77
2023/01/27 02:23:56;;;;;;;7.47;1.65;;;2.70;100.00;;;;;;4964022;28;20134;-77
2023/01/27 02:26:36;;;;;;;10.93;1.63;;;2.70;100.00;;;;;;4945137;28;20768;-77
2023/01/27 02:29:09;;;;;;;8.18;1.40;;;2.70;100.00;;;;;;4941611;28;20055;-77
2023/01/27 02:31:36;;;;;;;9.75;1.45;;;2.70;100.00;;;;;;4946598;28;20142;-77
2023/01/27 02:34:07;;;;;;;6.63;1.17;;;2.70;100.00;;;;;;4945523;28;20174;-77
2023/01/27 02:36:42;;;;;;;5.22;0.93;;;2.70;100.00;;;;;;4948252;28;20768;-77
2023/01/27 02:39:13;;;;;;;9.80;1.45;;;2.70;100.00;;;;;;4961947;28;20051;-77
2023/01/27 02:41:43;;;;;;;12.13;1.17;;;2.70;100.00;;;;;;4946355;28;20051;-77
2023/01/27 02:44:10;;;;;;;4.50;0.80;;;2.70;100.00;;;;;;4943147;28;20047;-77
2023/01/27 02:46:37;;;;;;;8.43;1.20;;;2.60;100.00;;;;;;4946796;28;20047;-77
2023/01/27 02:49:04;;;;;;;7.88;1.40;;;2.60;100.00;;;;;;4946876;28;20047;-78
2023/01/27 02:51:31;;;;;;;10.70;1.30;;;2.60;100.00;;;;;;4948323;28;20085;-78
2023/01/27 02:53:58;;;;;;;7.65;1.20;;;2.60;100.00;;;;;;4962528;28;20051;-78
2023/01/27 02:56:25;;;;;;;14.27;1.50;;;2.60;100.00;;;;;;4962539;28;20047;-78
2023/01/27 02:58:52;;;;;;;6.25;1.30;;;2.60;100.00;;;;;;4965129;28;20047;-78
2023/01/27 03:01:19;;;;;;;14.10;1.63;;;2.60;100.00;;;;;;4950172;28;20608;-77
2023/01/27 03:03:46;;;;;;;4.55;1.25;;;2.60;100.00;;;;;;4951412;28;20137;-77
2023/01/27 03:06:13;;;;;;;10.88;1.00;;;2.60;100.00;;;;;;4949686;28;20051;-78
2023/01/27 03:08:41;;;;;;;5.88;1.50;;;2.60;100.00;;;;;;4951877;28;20055;-78
2023/01/27 03:11:09;;;;;;;8.20;1.15;;;2.60;100.00;;;;;;4950350;28;20063;-78
2023/01/27 03:13:36;;;;;;;13.13;2.35;;;2.60;100.00;;;;;;4952016;28;20047;-78
2023/01/27 03:18:52;;;;;;;12.68;1.83;;;2.70;99.90;;;;;;4951219;28;20239;-78
2023/01/27 03:21:19;;;;;;;5.97;1.55;;;2.60;99.90;;;;;;4949350;28;20075;-78
2023/01/27 03:23:47;;;;;;;4.40;1.48;;;2.60;100.00;;;;;;4951242;28;20051;-77
2023/01/27 03:26:15;;;;;;;9.20;1.65;;;2.60;100.00;;;;;;4948510;28;20695;-77
2023/01/27 03:28:42;;;;;;;11.65;1.60;;;2.60;99.90;;;;;;4952066;28;20051;-82
2023/01/27 03:31:20;;;;;;;16.98;1.70;;;2.60;99.90;;;;;;4954583;28;20063;-84
2023/01/27 03:33:47;;;;;;;16.50;2.08;;;2.60;99.70;;;;;;4954830;28;20082;-82
2023/01/27 03:47:16;;;;;;;16.65;1.88;;;2.70;99.90;;;;;;4952201;28;20054;-82
2023/01/27 03:49:43;;;;;;;8.30;1.67;;;2.60;99.90;;;;;;4953335;28;20709;-82
2023/01/27 03:52:10;;;;;;;11.38;1.70;;;2.60;99.80;;;;;;4951762;28;20058;-82
2023/01/27 03:54:37;;;;;;;4.35;1.65;;;2.60;99.80;;;;;;4957830;28;20069;-82
2023/01/27 03:57:04;;;;;;;18.25;1.80;;;2.60;99.70;;;;;;4953708;28;20087;-83
2023/01/27 03:59:32;;;;;;;16.98;1.77;;;2.60;99.80;;;;;;4960088;28;20047;-82
2023/01/27 04:07:35;;;;;;;;;;;2.60;99.80;;;;;;4947559;28;20048;-82
2023/01/27 04:10:05;;;;;;;16.63;2.05;;;2.60;99.40;;;;;;4965870;28;19993;-82
2023/01/27 04:12:32;;;;;;;11.77;1.83;;;2.60;99.70;;;;;;4948367;28;20403;-83
2023/01/27 04:14:59;;;;;;;14.52;1.70;;;2.60;99.80;;;;;;4950882;28;20647;-82
2023/01/27 04:17:26;;;;;;;17.40;1.67;;;2.60;99.80;;;;;;4954558;28;20039;-82
2023/01/27 04:19:53;;;;;;;10.55;1.80;;;2.50;99.70;;;;;;4957403;28;20043;-83
2023/01/27 04:22:20;;;;;;;13.60;2.08;;;2.60;99.60;;;;;;4952899;28;20051;-82
2023/01/27 04:24:46;;;;;;;12.05;2.17;;;2.50;99.80;;;;;;4954436;28;20070;-82
2023/01/27 04:27:14;;;;;;;12.90;2.22;;;2.60;99.80;;;;;;4954906;28;20063;-82
2023/01/27 04:29:42;;;;;;;15.57;2.58;;;2.50;99.60;;;;;;4955970;28;20661;-82
2023/01/27 04:32:12;;;;;;;10.48;1.90;;;2.50;99.50;;;;;;4951146;28;20055;-82
2023/01/27 04:34:39;;;;;;;6.20;1.55;;;2.50;99.40;;;;;;4953769;28;20047;-83
2023/01/27 04:37:08;;;;;;;11.00;1.90;;;2.50;99.30;;;;;;4956749;28;20762;-82
2023/01/27 04:39:35;;;;;;;6.93;1.60;;;2.50;99.50;;;;;;4950756;28;20051;-82
2023/01/27 04:42:03;;;;;;;17.63;2.03;;;2.50;99.20;;;;;;4952924;28;20051;-82
2023/01/27 04:44:30;;;;;;;12.98;2.40;;;2.50;99.00;;;;;;4951328;28;20040;-82
2023/01/27 04:46:57;;;;;;;13.05;1.77;;;2.50;98.90;;;;;;4954092;28;20043;-82
2023/01/27 04:49:25;;;;;;;19.98;2.83;;;2.50;98.30;;;;;;4953140;28;20149;-82
2023/01/27 04:51:53;;;;;;;10.68;1.55;;;2.50;98.00;;;;;;4951530;28;20051;-82
2023/01/27 04:54:19;;;;;;;10.25;1.80;;;2.50;98.00;;;;;;4955347;28;20059;-82
2023/01/27 04:57:02;;;;;;;19.23;1.88;;;2.50;98.00;;;;;;4955567;28;20047;-83
2023/01/27 04:59:29;;;;;;;12.85;2.88;;;2.50;98.00;;;;;;4961921;28;20493;-84
2023/01/27 05:01:56;;;;;;;11.43;1.75;;;2.50;98.00;;;;;;4953169;28;20071;-83
2023/01/27 05:04:25;;;;;;;5.95;1.60;;;2.40;98.10;;;;;;4952433;28;20047;-83
2023/01/27 05:06:52;;;;;;;13.05;1.35;;;2.40;98.50;;;;;;4945402;28;20086;-82
2023/01/27 05:09:19;;;;;;;18.95;1.92;;;2.40;98.70;;;;;;4951494;28;20059;-81
2023/01/27 05:11:46;;;;;;;14.48;1.75;;;2.40;98.60;;;;;;4963732;28;20061;-82
2023/01/27 05:14:13;;;;;;;7.22;1.27;;;2.40;98.70;;;;;;4950469;28;20078;-83
2023/01/27 05:16:40;;;;;;;8.82;1.65;;;2.40;98.40;;;;;;4951650;28;20043;-83
2023/01/27 05:19:08;;;;;;;19.00;1.67;;;2.40;98.40;;;;;;4952053;28;20055;-82
2023/01/27 05:21:35;;;;;;;2.70;1.05;;;2.40;98.10;;;;;;4941978;28;20221;-82
2023/01/27 05:24:02;;;;;;;11.48;1.17;;;2.40;98.00;;;;;;4947454;28;20051;-82
2023/01/27 05:26:29;;;;;;;9.48;1.52;;;2.40;97.90;;;;;;4944516;28;20066;-82
2023/01/27 05:28:57;;;;;;;5.78;0.88;;;2.30;97.70;;;;;;4946779;28;20472;-82
2023/01/27 05:31:30;;;;;;;12.73;1.75;;;2.30;97.20;;;;;;4960169;28;20055;-82
2023/01/27 05:33:59;;;;;;;13.70;1.40;;;2.30;96.90;;;;;;4951089;28;20043;-82
2023/01/27 05:36:27;;;;;;;18.05;1.20;;;2.30;97.10;;;;;;4951481;28;20165;-82
2023/01/27 05:38:55;;;;;;;13.25;1.60;;;2.30;96.70;;;;;;4952375;28;20074;-81
2023/01/27 05:41:46;;;;;;;9.68;1.10;;;2.30;96.70;;;;;;4948521;28;20047;-81
2023/01/27 05:44:13;;;;;;;5.03;1.10;;;2.30;96.70;;;;;;4958596;28;20058;-82
2023/01/27 05:46:41;;;;;;;8.15;0.98;;;2.30;96.60;;;;;;4963094;28;20138;-82
2023/01/27 05:49:08;;;;;;;4.85;1.30;;;2.30;95.90;;;;;;4959148;28;20051;-82
2023/01/27 05:51:38;;;;;;;6.97;1.15;;;2.40;96.10;;;;;;4950220;28;20057;-82
2023/01/27 05:54:06;;;;;;;5.65;1.38;;;2.30;95.90;;;;;;4947244;28;20173;-83
2023/01/27 05:56:37;;;;;;;5.35;1.58;;;2.40;95.60;;;;;;4945910;28;20054;-84
2023/01/27 05:59:04;;;;;;;6.88;1.90;;;2.40;95.20;;;;;;4949602;28;20055;-80
2023/01/27 06:01:33;;;;;;;12.02;1.92;;;2.40;95.40;;;;;;4966325;28;20047;-78
2023/01/27 06:04:00;;;;;;;7.20;1.98;;;2.40;95.20;;;;;;4948702;28;20083;-79
2023/01/27 06:06:29;;;;;;;8.52;1.92;;;2.40;95.20;;;;;;4954565;28;20085;-78
2023/01/27 06:08:56;;;;;;;19.88;1.40;;;2.40;94.60;;;;;;4964735;28;20552;-79
2023/01/27 06:11:24;;;;;;;11.57;2.03;;;2.30;94.80;;;;;;4949402;28;20519;-78
2023/01/27 06:13:52;;;;;;;12.07;1.70;;;2.40;94.50;;;;;;4948939;28;20047;-81
2023/01/27 06:16:21;;;;;;;12.57;1.27;;;2.40;95.10;;;;;;4944982;28;20055;-91
2023/01/27 06:18:48;;;;;;;7.72;1.27;;;2.40;95.00;;;;;;4950828;28;20051;-83
2023/01/27 06:21:16;;;;;;;6.15;1.00;;;2.40;94.80;;;;;;4949067;28;20130;-80
2023/01/27 06:23:43;;;;;;;6.93;1.20;;;2.30;94.50;;;;;;4948410;28;20051;-82
2023/01/27 06:26:15;;;;;;;5.38;1.45;;;2.40;94.50;;;;;;4949840;28;20055;-83
2023/01/27 06:28:42;;;;;;;8.23;1.77;;;2.30;94.50;;;;;;4950709;28;20047;-80
2023/01/27 06:31:15;;;;;;;13.48;1.20;;;2.30;94.00;;;;;;4955483;28;20516;-77
2023/01/27 06:33:42;;;;;;;7.60;1.20;;;2.30;93.90;;;;;;4948093;28;20065;-78
2023/01/27 06:36:15;;;;;;;5.38;1.45;;;2.40;94.00;;;;;;4948735;28;20062;-82
2023/01/27 06:38:42;;;;;;;3.78;1.20;;;2.30;93.80;;;;;;4943545;28;20547;-79
2023/01/27 06:41:10;;;;;;;5.45;1.50;;;2.30;93.80;;;;;;4941267;28;20058;-78
2023/01/27 06:43:37;;;;;;;8.05;1.95;;;2.30;94.00;;;;;;4944002;28;20066;-78
2023/01/27 06:46:04;;;;;;;9.27;1.55;;;2.30;93.80;;;;;;4946686;28;20062;-75
2023/01/27 06:48:33;;;;;;;10.30;1.50;;;2.30;93.80;;;;;;4943531;28;20146;-78
2023/01/27 06:51:03;;;;;;;7.53;1.08;;;2.30;93.80;;;;;;4944100;28;20055;-78
2023/01/27 06:53:31;;;;;;;7.18;1.08;;;2.30;93.60;;;;;;4945009;28;20047;-77
2023/01/27 06:56:00;;;;;;;3.97;0.82;;;2.30;93.40;;;;;;4948017;28;20154;-79
2023/01/27 06:58:27;;;;;;;9.32;1.40;;;2.30;93.50;;;;;;4950311;28;20499;-80
2023/01/27 07:00:55;;;;;;;14.63;1.17;;;2.30;93.00;;;;;;4953087;28;20043;-81
2023/01/27 07:03:22;;;;;;;14.88;1.70;;;2.30;93.40;;;;;;4953336;28;20743;-81
2023/01/27 07:05:49;;;;;;;3.63;0.90;;;2.30;93.10;;;;;;4953575;28;20085;-83
2023/01/27 07:08:16;;;;;;;3.50;1.00;;;2.30;92.80;;;;;;4960253;28;20057;-82
2023/01/27 07:10:43;;;;;;;8.52;1.13;;;2.30;92.80;;;;;;4973791;28;20054;-82
2023/01/27 07:13:12;;;;;;;5.90;1.00;;;2.30;93.10;;;;;;4971114;28;20663;-82
2023/01/27 07:15:39;;;;;;;6.00;1.15;;;2.30;92.30;;;;;;4947801;28;20054;-80
2023/01/27 07:18:06;;;;;;;1.98;0.80;;;2.30;92.70;;;;;;4951583;28;20094;-82
2023/01/27 07:20:33;;;;;;;4.85;0.60;;;2.30;92.80;;;;;;4950833;28;20047;-81
2023/01/27 07:23:02;;;;;;;6.97;0.98;;;2.30;92.10;;;;;;4963081;28;20739;-81
2023/01/27 07:25:31;;;;;;;12.65;3.25;;;2.30;92.30;;;;;;4948993;28;20055;-81
2023/01/27 07:27:59;;;;;;;19.10;5.55;;;2.30;92.10;;;;;;4949191;28;20054;-80
2023/01/27 07:30:27;;;;;;;11.93;2.22;;;2.30;91.80;;;;;;4946080;28;20057;-80
2023/01/27 07:32:54;;;;;;;10.07;1.23;;;2.30;91.80;;;;;;4944230;28;20157;-80
2023/01/27 07:35:22;;;;;;;2.03;0.88;;;2.30;91.90;;;;;;4949127;28;20464;-82
2023/01/27 07:37:49;;;;;;;4.93;1.15;;;2.30;92.10;;;;;;4949437;28;20067;-81
2023/01/27 07:40:17;;;;;;;25.38;4.82;;;2.30;91.90;;;;;;4947412;28;20062;-81
2023/01/27 07:42:44;;;;;;;11.38;2.80;;;2.30;91.70;;;;;;4959708;28;20049;-77
2023/01/27 07:45:11;;;;;;;2.67;0.70;;;2.30;91.70;;;;;;4945768;28;20051;-82
2023/01/27 07:47:38;;;;;;;9.98;1.40;;;2.30;91.40;;;;;;4947036;29;20055;-80
2023/01/27 07:50:06;;;;;;;6.07;1.17;;;2.30;91.40;;;;;;4945514;28;20117;-77
2023/01/27 07:52:33;;;;;;;10.05;3.30;;;2.30;91.40;;;;;;4945336;28;20135;-79
2023/01/27 07:55:00;;;;;;;9.60;3.30;;;2.40;91.10;;;;;;4975277;28;20699;-77
2023/01/27 07:57:26;;;;;;;5.75;2.60;;;2.40;91.30;;;;;;4951658;28;20051;-81
2023/01/27 07:59:55;;;;;;;9.15;1.80;;;2.40;91.80;;;;;;4960246;28;20058;-80
2023/01/27 08:02:23;;;;;;;11.32;3.67;;;2.40;91.90;;;;;;4961487;28;20106;-81
2023/01/27 08:04:50;;;;;;;14.52;5.32;;;2.40;91.50;;;;;;4958427;28;20050;-81
2023/01/27 08:07:20;;;;;;;37.08;9.73;;;2.40;91.60;;;;;;4951850;28;20138;-82
2023/01/27 08:09:47;;;;;;;37.63;9.55;;;2.40;91.80;;;;;;4968838;28;20043;-81
2023/01/27 08:12:14;;;;;;;25.67;8.20;;;2.40;91.80;;;;;;4952384;28;20091;-81
2023/01/27 08:14:41;;;;;;;20.95;5.65;;;2.40;91.00;;;;;;4972508;28;20054;-80
2023/01/27 08:17:08;;;;;;;27.73;8.75;;;2.40;90.80;;;;;;4953886;28;20055;-80
2023/01/27 08:19:34;;;;;;;4.65;2.05;;;2.40;90.70;;;;;;4951078;28;20074;-79
2023/01/27 08:22:02;;;;;;;11.13;2.85;;;2.50;91.00;;;;;;4968481;28;20050;-80
2023/01/27 08:24:29;;;;;;;7.18;1.77;;;2.50;91.00;;;;;;4953916;28;20073;-80
2023/01/27 08:26:56;;;;;;;8.55;1.55;;;2.50;90.50;;;;;;4948257;28;20051;-80
2023/01/27 08:29:23;;;;;;;8.45;1.50;;;2.50;90.50;;;;;;4951573;29;20065;-78
2023/01/27 08:31:50;;;;;;;7.00;1.45;;;2.50;90.20;;;;;;4954820;28;20560;-77
2023/01/27 08:34:17;;;;;;;9.35;1.55;;;2.50;90.60;;;;;;4961440;28;20069;-80
2023/01/27 08:36:44;;;;;;;12.35;2.30;;;2.60;90.20;;;;;;4954544;28;20058;-80
2023/01/27 08:39:11;;;;;;;7.88;1.38;;;2.60;90.10;;;;;;4953614;28;20058;-79
2023/01/27 08:41:38;;;;;;;7.82;1.48;;;2.60;89.60;;;;;;4968312;28;20047;-78
2023/01/27 08:44:05;;;;;;;4.85;1.42;;;2.60;89.60;;;;;;4951816;28;20053;-83
2023/01/27 08:46:33;;;;;;;12.73;1.73;;;2.60;88.90;;;;;;4953759;28;20055;-80
2023/01/27 08:49:00;;;;;;;8.75;1.27;;;2.70;89.50;;;;;;4963564;28;20431;-80
2023/01/27 08:51:27;;;;;;;8.80;0.98;;;2.70;89.30;;;;;;4952286;28;20051;-78
2023/01/27 08:53:54;;;;;;;8.75;2.35;;;2.70;88.70;;;;;;4959882;28;20054;-82
2023/01/27 08:56:21;;;;;;;5.93;0.88;;;2.70;88.40;;;;;;4958073;28;20051;-81
2023/01/27 08:58:51;;;;;;;13.82;1.23;;;2.70;88.70;;;;;;4979778;28;20058;-81
2023/01/27 09:01:19;;;;;;;3.97;1.08;;;2.80;88.40;;;;;;4968068;28;20051;-82
2023/01/27 09:03:47;;;;;;;5.55;1.27;;;2.80;87.90;;;;;;4947907;28;20150;-82
2023/01/27 09:06:15;;;;;;;5.15;0.80;;;2.80;88.00;;;;;;4952486;28;20051;-81
2023/01/27 09:08:43;;;;;;;4.38;0.60;;;2.80;87.30;;;;;;4960419;28;20055;-81
2023/01/27 09:11:15;;;;;;;4.05;1.35;;;2.80;87.40;;;;;;4948783;28;20733;-82
2023/01/27 09:13:43;;;;;;;8.48;1.48;;;2.90;87.30;;;;;;4951287;28;20740;-83
2023/01/27 09:16:10;;;;;;;8.88;1.38;;;2.90;87.10;;;;;;4957848;28;20062;-82
2023/01/27 09:18:37;;;;;;;4.28;1.00;;;2.90;86.80;;;;;;4959017;28;20066;-82
2023/01/27 09:21:05;;;;;;;2.97;0.85;;;2.90;87.70;;;;;;4965107;28;20057;-82
2023/01/27 09:23:35;;;;;;;9.05;1.67;;;3.00;86.90;;;;;;4943434;29;20043;-82
2023/01/27 09:26:02;;;;;;;7.97;1.15;;;3.00;87.20;;;;;;4942446;28;20552;-82
2023/01/27 09:28:28;;;;;;;3.85;1.05;;;3.00;87.20;;;;;;4941296;28;20054;-82
2023/01/27 09:30:57;;;;;;;9.20;1.23;;;3.10;87.30;;;;;;4958583;28;20661;-81
2023/01/27 09:33:27;;;;;;;10.27;1.27;;;3.10;87.20;;;;;;4965012;28;20457;-81
2023/01/27 09:35:59;;;;;;;4.38;1.08;;;3.00;87.40;;;;;;4970508;28;20055;-82
2023/01/27 09:38:30;;;;;;;5.35;1.77;;;3.10;87.90;;;;;;4952231;28;20492;-83
2023/01/27 09:41:09;;;;;;;6.25;1.83;;;3.20;86.10;;;;;;4960930;28;20073;-85
2023/01/27 09:43:57;;;;;;;18.00;3.40;;;3.20;86.60;;;;;;4954293;28;20123;-82
2023/01/27 09:46:23;;;;;;;12.57;2.20;;;3.30;86.00;;;;;;4956077;28;20056;-84
2023/01/27 09:49:19;;;;;;;8.70;2.72;;;3.30;85.80;;;;;;4978827;28;20083;-84
2023/01/27 09:52:10;;;;;;;8.07;1.40;;;3.30;86.40;;;;;;4963357;28;20491;-84
2023/01/27 09:54:58;;;;;;;6.00;1.10;;;3.40;86.30;;;;;;4952270;28;20291;-82
2023/01/27 09:57:52;;;;;;;10.88;1.63;;;3.40;87.10;;;;;;4964846;28;20157;-82
2023/01/27 10:00:43;;;;;;;8.18;1.20;;;3.40;87.80;;;;;;4948437;28;20114;-82
2023/01/27 10:03:28;;;;;;;9.02;1.67;;;3.30;88.30;;;;;;4951850;28;20055;-82
2023/01/27 10:05:55;;;;;;;8.70;1.83;;;3.50;88.30;;;;;;4949925;28;20142;-81
2023/01/27 10:08:46;;;;;;;9.77;2.70;;;3.60;88.20;;;;;;4961169;28;20056;-81
2023/01/27 10:11:18;;;;;;;2.83;0.93;;;3.60;86.20;;;;;;4946482;28;20061;-80
2023/01/27 10:14:30;;;;;;;7.95;1.25;;;3.70;86.40;;;;;;4946257;28;20050;-81
2023/01/27 10:17:14;;;;;;;5.20;1.13;;;3.80;85.80;;;;;;4946854;28;20063;-81
2023/01/27 10:19:52;;;;;;;5.63;1.40;;;3.80;85.40;;;;;;4960892;28;20047;-81
2023/01/27 10:22:41;;;;;;;10.02;1.73;;;3.90;85.90;;;;;;4947568;28;20194;-81
2023/01/27 10:25:33;;;;;;;10.13;1.20;;;4.10;86.00;;;;;;4969132;28;20053;-81
2023/01/27 10:28:10;;;;;;;1.75;0.77;;;4.20;84.00;;;;;;4971649;28;20054;-81
2023/01/27 10:30:42;;;;;;;4.70;0.90;;;4.10;83.60;;;;;;4959351;28;20055;-81
2023/01/27 10:33:19;;;;;;;5.88;0.80;;;4.20;83.00;;;;;;4967476;28;20791;-82
2023/01/27 10:36:07;;;;;;;7.20;1.15;;;4.20;82.50;;;;;;4970924;28;20047;-81
2023/01/27 10:39:06;;;;;;;2.40;0.70;;;4.10;82.70;;;;;;4972176;28;20058;-81
2023/01/27 10:41:51;;;;;;;1.95;0.63;;;4.20;82.60;;;;;;4945025;28;20496;-81
2023/01/27 10:44:33;;;;;;;2.70;0.77;;;4.30;81.50;;;;;;4938823;28;20068;-81
2023/01/27 10:47:25;;;;;;;7.53;1.33;;;4.40;81.10;;;;;;4947524;28;20055;-80
2023/01/27 10:50:08;;;;;;;7.47;1.00;;;4.30;81.60;;;;;;4945996;28;20154;-79
2023/01/27 10:52:45;;;;;;;6.97;1.70;;;4.30;81.80;;;;;;4948219;28;20043;-79
2023/01/27 10:55:24;;;;;;;1.35;0.65;;;4.30;82.50;;;;;;4946575;28;20656;-80
2023/01/27 10:57:54;;;;;;;5.88;1.38;;;4.20;81.00;;;;;;4946515;28;20153;-80
2023/01/27 11:00:38;;;;;;;4.68;1.50;;;4.20;81.20;;;;;;4958102;28;20055;-80
2023/01/27 11:03:39;;;;;;;7.75;1.42;;;4.40;81.90;;;;;;4946616;28;20048;-80
2023/01/27 11:06:13;;;;;;;6.18;1.60;;;4.60;80.70;;;;;;4935958;28;20099;-75
2023/01/27 11:08:44;;;;;;;3.40;0.80;;;4.80;79.20;;;;;;4940934;28;20054;-75
2023/01/27 11:14:03;;;;;;;2.42;1.17;;;5.20;74.90;;;;;;4938574;28;20134;-75
2023/01/27 11:16:40;;;;;;;2.63;0.90;;;5.20;74.30;;;;;;4953099;28;20066;-75
2023/01/27 11:19:19;;;;;;;8.57;1.75;;;5.10;75.30;;;;;;4936370;28;20642;-75
2023/01/27 11:21:49;;;;;;;16.90;5.80;;;5.10;74.00;;;;;;4942499;28;20070;-75
2023/01/27 11:24:45;;;;;;;6.53;2.20;;;4.80;73.80;;;;;;4955224;28;20729;-76
2023/01/27 11:27:21;;;;;;;2.00;1.10;;;4.60;75.40;;;;;;4943067;28;20051;-76
2023/01/27 11:30:03;;;;;;;7.75;1.63;;;4.40;76.40;;;;;;4941017;28;20059;-75
2023/01/27 11:33:01;;;;;;;10.77;1.38;;;4.40;77.10;;;;;;4968878;28;20141;-75
2023/01/27 11:35:28;;;;;;;5.78;1.27;;;4.40;77.20;;;;;;4942817;28;20138;-75
2023/01/27 11:37:55;;;;;;;5.65;0.95;;;4.40;77.40;;;;;;4949900;28;20059;-75
2023/01/27 11:40:37;;;;;;;10.98;1.67;;;4.50;77.10;;;;;;4958269;28;20083;-80
2023/01/27 11:43:04;;;;;;;7.32;1.60;;;4.50;76.50;;;;;;4956056;28;20054;-80
2023/01/27 11:45:34;;;;;;;6.20;1.23;;;4.40;76.10;;;;;;4957286;28;20464;-80
2023/01/27 11:48:06;;;;;;;5.70;0.88;;;4.40;75.60;;;;;;4955835;28;20608;-81
2023/01/27 11:50:35;;;;;;;3.60;0.75;;;4.50;74.80;;;;;;4948229;28;20134;-83
2023/01/27 11:53:35;;;;;;;5.55;1.13;;;4.60;75.80;;;;;;4949803;29;20150;-80
2023/01/27 11:56:08;;;;;;;21.88;2.58;;;4.50;75.00;;;;;;4945756;28;20047;-80
2023/01/27 11:58:35;;;;;;;14.57;1.17;;;4.50;74.50;;;;;;4962040;28;20062;-80
2023/01/27 12:01:12;;;;;;;5.30;1.17;;;4.40;75.30;;;;;;4969083;28;20043;-81
2023/01/27 12:03:47;;;;;;;5.38;1.20;;;4.30;75.00;;;;;;4950166;28;20073;-80
2023/01/27 12:06:20;;;;;;;;;;;4.40;75.00;;;;;;4948015;28;20126;-76
2023/01/27 12:08:48;;;;;;;2.00;0.55;;;4.30;75.60;;;;;;4940729;28;19930;-77
2023/01/27 12:11:26;;;;;;;9.25;0.93;;;4.10;72.80;;;;;;4940304;28;21409;-76
2023/01/27 12:13:58;;;;;;;11.05;0.60;;;3.90;71.70;;;;;;4943818;28;20051;-76
2023/01/27 12:17:11;;;;;;;3.85;0.95;;;3.70;72.20;;;;;;4962412;23;20123;-77
2023/01/27 12:23:47;;;;;;;3.83;0.70;;;3.70;75.00;;;;;;4997413;23;20078;-92
2023/01/27 12:26:36;;;;;;;3.55;0.60;;;4.50;72.30;;;;;;4979591;28;20038;-94
2023/01/27 12:29:40;;;;;;;6.45;0.60;;;5.40;69.00;;;;;;4976240;28;20051;-91
2023/01/27 12:32:33;;;;;;;3.83;0.82;;;6.00;68.20;;;;;;4972813;28;20054;-91
2023/01/27 12:35:21;;;;;;;7.88;1.02;;;6.10;64.40;;;;;;4971139;28;20084;-93
2023/01/27 12:38:03;;;;;;;4.22;0.80;;;5.70;65.40;;;;;;4956410;28;20506;-93
2023/01/27 12:40:38;;;;;;;3.42;0.85;;;5.30;65.80;;;;;;4970418;28;20538;-92
2023/01/27 12:43:20;;;;;;;2.17;0.47;;;5.40;67.50;;;;;;4970722;28;20061;-93
2023/01/27 12:46:28;;;;;;;5.63;0.57;;;5.40;66.40;;;;;;4992582;28;20147;-93
2023/01/27 12:49:14;;;;;;;7.22;0.73;;;5.50;65.50;;;;;;4992908;28;20122;-93
2023/01/27 12:51:47;;;;;;;1.15;0.52;;;5.20;66.30;;;;;;4972477;28;20076;-93
2023/01/27 12:54:27;;;;;;;3.30;1.30;;;4.80;67.40;;;;;;4986742;28;20062;-94
2023/01/27 12:57:04;;;;;;;5.13;1.30;;;4.60;66.60;;;;;;4980153;28;20138;-93
2023/01/27 12:59:32;;;;;;;4.53;1.08;;;4.40;67.90;;;;;;4967101;28;20054;-91
2023/01/27 13:02:20;;;;;;;6.70;0.40;;;4.30;69.30;;;;;;4963241;28;20054;-93
2023/01/27 13:05:01;;;;;;;10.18;0.98;;;4.30;69.30;;;;;;4975113;28;20057;-92
2023/01/27 13:07:38;;;;;;;1.02;0.60;;;4.10;69.20;;;;;;4987202;28;20046;-93
2023/01/27 13:10:24;;;;;;;1.42;0.60;;;4.10;69.50;;;;;;4954261;28;20062;-92
2023/01/27 13:13:00;;;;;;;4.78;0.75;;;3.90;69.80;;;;;;4976247;28;20120;-92
2023/01/27 13:15:32;;;;;;;5.03;0.47;;;3.80;71.20;;;;;;4965802;28;20135;-92
2023/01/27 13:18:12;;;;;;;3.35;0.47;;;3.80;70.40;;;;;;4972009;28;20054;-93
2023/01/27 13:20:48;;;;;;;8.80;0.95;;;3.80;69.60;;;;;;4977968;28;20046;-92
2023/01/27 13:23:33;;;;;;;1.95;0.80;;;4.00;70.60;;;;;;4966439;28;20057;-92
2023/01/27 13:26:04;;;;;;;2.42;0.43;;;4.10;70.50;;;;;;4980828;28;20177;-92
2023/01/27 13:28:57;;;;;;;11.48;0.90;;;4.20;70.70;;;;;;4976915;28;20196;-92
2023/01/27 13:31:52;;;;;;;6.95;0.82;;;4.40;70.40;;;;;;4979844;28;20046;-92
2023/01/27 13:34:51;;;;;;;5.13;0.70;;;4.70;69.10;;;;;;4974829;28;20050;-93
2023/01/27 13:37:30;;;;;;;5.30;0.70;;;4.90;69.50;;;;;;4971878;28;20050;-93
2023/01/27 13:40:19;;;;;;;3.22;0.50;;;4.90;68.30;;;;;;4971997;28;20146;-92
2023/01/27 13:43:01;;;;;;;19.52;7.72;;;4.90;68.20;;;;;;4974717;28;20127;-93
2023/01/27 13:45:54;;;;;;;21.02;6.95;;;4.80;67.20;;;;;;4972034;28;20057;-93
2023/01/27 13:48:26;;;;;;;10.45;1.73;;;4.50;66.50;;;;;;4974349;28;20058;-93
2023/01/27 13:51:11;;;;;;;4.10;0.73;;;4.30;68.10;;;;;;4970898;28;20050;-92
2023/01/27 13:53:42;;;;;;;1.63;0.75;;;4.30;68.90;;;;;;4981382;28;20054;-92